sensor_id;sensor_type;location;lat;lon;timestamp;pressure;altitude;pressure_sealevel;temperature;humidity
54870;BME280;40756;-37.950;145.008;2023-09-19T00:02:05;100494.72;;;18.77;42.29
54870;BME280;40756;-37.950;145.008;2023-09-19T00:04:35;100497.10;;;19.38;41.20
54870;BME280;40756;-37.950;145.008;2023-09-19T00:07:04;100485.10;;;20.13;39.99
54870;BME280;40756;-37.950;145.008;2023-09-19T00:09:33;100477.41;;;20.01;40.08
54870;BME280;40756;-37.950;145.008;2023-09-19T00:12:04;100468.51;;;18.47;41.05
54870;BME280;40756;-37.950;145.008;2023-09-19T00:14:34;100469.12;;;19.58;39.60
54870;BME280;40756;-37.950;145.008;2023-09-19T00:17:03;100463.49;;;19.64;39.32
54870;BME280;40756;-37.950;145.008;2023-09-19T00:19:32;100456.83;;;20.14;38.21
54870;BME280;40756;-37.950;145.008;2023-09-19T00:22:03;100456.46;;;20.13;38.37
54870;BME280;40756;-37.950;145.008;2023-09-19T00:24:32;100444.55;;;19.98;38.23
54870;BME280;40756;-37.950;145.008;2023-09-19T00:27:02;100447.55;;;20.26;37.81
54870;BME280;40756;-37.950;145.008;2023-09-19T00:29:31;100444.01;;;20.47;37.66
54870;BME280;40756;-37.950;145.008;2023-09-19T00:32:01;100441.14;;;20.36;37.48
54870;BME280;40756;-37.950;145.008;2023-09-19T00:34:32;100439.14;;;20.38;37.73
54870;BME280;40756;-37.950;145.008;2023-09-19T00:37:02;100435.41;;;20.68;36.85
54870;BME280;40756;-37.950;145.008;2023-09-19T00:39:31;100424.02;;;20.21;38.03
54870;BME280;40756;-37.950;145.008;2023-09-19T00:42:01;100409.63;;;20.47;38.02
54870;BME280;40756;-37.950;145.008;2023-09-19T00:44:31;100407.43;;;20.99;37.80
54870;BME280;40756;-37.950;145.008;2023-09-19T00:47:01;100402.99;;;21.06;36.26
54870;BME280;40756;-37.950;145.008;2023-09-19T00:49:30;100394.71;;;21.60;35.71
54870;BME280;40756;-37.950;145.008;2023-09-19T00:51:59;100386.62;;;21.01;36.50
54870;BME280;40756;-37.950;145.008;2023-09-19T00:54:29;100377.79;;;21.13;36.75
54870;BME280;40756;-37.950;145.008;2023-09-19T00:56:58;100368.66;;;21.13;35.88
54870;BME280;40756;-37.950;145.008;2023-09-19T00:59:28;100365.18;;;21.51;35.06
54870;BME280;40756;-37.950;145.008;2023-09-19T01:01:58;100351.66;;;21.82;35.56
54870;BME280;40756;-37.950;145.008;2023-09-19T01:04:28;100349.87;;;21.82;35.20
54870;BME280;40756;-37.950;145.008;2023-09-19T01:06:57;100346.17;;;21.88;34.88
54870;BME280;40756;-37.950;145.008;2023-09-19T01:09:27;100345.92;;;22.26;34.42
54870;BME280;40756;-37.950;145.008;2023-09-19T01:12:01;100343.20;;;22.44;34.04
54870;BME280;40756;-37.950;145.008;2023-09-19T01:14:39;100334.65;;;22.48;33.95
54870;BME280;40756;-37.950;145.008;2023-09-19T01:17:16;100337.75;;;22.96;33.09
54870;BME280;40756;-37.950;145.008;2023-09-19T01:20:11;100331.65;;;23.00;33.57
54870;BME280;40756;-37.950;145.008;2023-09-19T01:22:52;100327.74;;;23.43;33.34
54870;BME280;40756;-37.950;145.008;2023-09-19T01:25:46;100326.69;;;23.54;31.94
54870;BME280;40756;-37.950;145.008;2023-09-19T01:28:31;100320.41;;;24.15;31.42
54870;BME280;40756;-37.950;145.008;2023-09-19T01:31:03;100316.54;;;24.53;31.72
54870;BME280;40756;-37.950;145.008;2023-09-19T01:33:57;100309.65;;;24.39;31.37
54870;BME280;40756;-37.950;145.008;2023-09-19T01:36:27;100302.93;;;25.01;30.21
54870;BME280;40756;-37.950;145.008;2023-09-19T01:38:58;100298.83;;;25.40;29.80
54870;BME280;40756;-37.950;145.008;2023-09-19T01:41:38;100289.93;;;25.16;28.46
54870;BME280;40756;-37.950;145.008;2023-09-19T01:44:17;100284.12;;;25.52;29.13
54870;BME280;40756;-37.950;145.008;2023-09-19T01:46:53;100278.26;;;25.60;28.12
54870;BME280;40756;-37.950;145.008;2023-09-19T01:49:36;100273.57;;;25.47;28.85
54870;BME280;40756;-37.950;145.008;2023-09-19T01:52:12;100265.70;;;26.09;28.68
54870;BME280;40756;-37.950;145.008;2023-09-19T01:54:48;100262.83;;;25.77;27.94
54870;BME280;40756;-37.950;145.008;2023-09-19T01:57:26;100261.78;;;26.03;27.22
54870;BME280;40756;-37.950;145.008;2023-09-19T02:00:02;100257.39;;;26.10;27.95
54870;BME280;40756;-37.950;145.008;2023-09-19T02:02:33;100257.52;;;26.47;26.56
54870;BME280;40756;-37.950;145.008;2023-09-19T02:05:04;100251.31;;;26.27;26.38
54870;BME280;40756;-37.950;145.008;2023-09-19T02:07:33;100240.92;;;27.34;26.57
54870;BME280;40756;-37.950;145.008;2023-09-19T02:10:03;100228.60;;;27.69;26.00
54870;BME280;40756;-37.950;145.008;2023-09-19T02:12:32;100233.92;;;27.85;24.72
54870;BME280;40756;-37.950;145.008;2023-09-19T02:15:01;100232.35;;;28.07;26.93
54870;BME280;40756;-37.950;145.008;2023-09-19T02:17:30;100224.08;;;28.64;24.16
54870;BME280;40756;-37.950;145.008;2023-09-19T02:20:00;100222.71;;;29.32;22.93
54870;BME280;40756;-37.950;145.008;2023-09-19T02:22:29;100215.75;;;28.98;23.31
54870;BME280;40756;-37.950;145.008;2023-09-19T02:24:59;100216.21;;;29.57;22.89
54870;BME280;40756;-37.950;145.008;2023-09-19T02:27:28;100202.50;;;29.83;23.50
54870;BME280;40756;-37.950;145.008;2023-09-19T02:29:57;100201.50;;;29.83;22.37
54870;BME280;40756;-37.950;145.008;2023-09-19T02:32:26;100203.19;;;29.95;23.72
54870;BME280;40756;-37.950;145.008;2023-09-19T02:34:56;100184.01;;;30.16;21.81
54870;BME280;40756;-37.950;145.008;2023-09-19T02:37:25;100186.95;;;29.08;23.45
54870;BME280;40756;-37.950;145.008;2023-09-19T02:39:55;100186.08;;;29.64;23.04
54870;BME280;40756;-37.950;145.008;2023-09-19T02:42:24;100182.22;;;30.63;21.92
54870;BME280;40756;-37.950;145.008;2023-09-19T02:44:53;100185.07;;;30.49;22.62
54870;BME280;40756;-37.950;145.008;2023-09-19T02:47:23;100192.96;;;28.38;23.60
54870;BME280;40756;-37.950;145.008;2023-09-19T02:49:52;100195.29;;;29.30;23.53
54870;BME280;40756;-37.950;145.008;2023-09-19T02:52:22;100188.09;;;29.62;22.84
54870;BME280;40756;-37.950;145.008;2023-09-19T02:54:51;100189.48;;;29.49;23.42
54870;BME280;40756;-37.950;145.008;2023-09-19T02:57:20;100176.71;;;29.75;22.43
54870;BME280;40756;-37.950;145.008;2023-09-19T02:59:50;100176.21;;;30.15;21.44
54870;BME280;40756;-37.950;145.008;2023-09-19T03:02:20;100177.85;;;30.67;20.96
54870;BME280;40756;-37.950;145.008;2023-09-19T03:04:50;100168.51;;;30.27;20.59
54870;BME280;40756;-37.950;145.008;2023-09-19T03:07:19;100167.05;;;30.33;20.92
54870;BME280;40756;-37.950;145.008;2023-09-19T03:09:49;100178.19;;;27.27;24.42
54870;BME280;40756;-37.950;145.008;2023-09-19T03:12:18;100174.00;;;25.75;27.33
54870;BME280;40756;-37.950;145.008;2023-09-19T03:14:48;100180.35;;;26.40;27.10
54870;BME280;40756;-37.950;145.008;2023-09-19T03:17:17;100181.03;;;24.51;29.41
54870;BME280;40756;-37.950;145.008;2023-09-19T03:19:47;100179.87;;;24.10;30.11
54870;BME280;40756;-37.950;145.008;2023-09-19T03:22:16;100184.62;;;24.42;29.50
54870;BME280;40756;-37.950;145.008;2023-09-19T03:24:46;100174.17;;;25.71;29.32
54870;BME280;40756;-37.950;145.008;2023-09-19T03:27:15;100167.80;;;25.13;29.47
54870;BME280;40756;-37.950;145.008;2023-09-19T03:29:44;100163.90;;;26.08;27.58
54870;BME280;40756;-37.950;145.008;2023-09-19T03:32:14;100164.92;;;24.77;27.79
54870;BME280;40756;-37.950;145.008;2023-09-19T03:34:43;100158.47;;;26.45;27.64
54870;BME280;40756;-37.950;145.008;2023-09-19T03:37:12;100149.33;;;27.59;24.59
54870;BME280;40756;-37.950;145.008;2023-09-19T03:39:42;100143.72;;;28.14;24.59
54870;BME280;40756;-37.950;145.008;2023-09-19T03:42:11;100140.26;;;27.85;24.15
54870;BME280;40756;-37.950;145.008;2023-09-19T03:44:40;100134.12;;;28.82;23.43
54870;BME280;40756;-37.950;145.008;2023-09-19T03:47:10;100121.75;;;29.31;22.12
54870;BME280;40756;-37.950;145.008;2023-09-19T03:49:40;100124.94;;;28.97;22.72
54870;BME280;40756;-37.950;145.008;2023-09-19T03:52:09;100125.10;;;28.55;22.91
54870;BME280;40756;-37.950;145.008;2023-09-19T03:54:39;100125.57;;;28.34;23.00
54870;BME280;40756;-37.950;145.008;2023-09-19T03:57:08;100120.64;;;28.53;22.44
54870;BME280;40756;-37.950;145.008;2023-09-19T03:59:37;100104.98;;;28.30;21.78
54870;BME280;40756;-37.950;145.008;2023-09-19T04:02:06;100105.43;;;28.87;22.14
54870;BME280;40756;-37.950;145.008;2023-09-19T04:04:36;100106.03;;;27.94;22.56
54870;BME280;40756;-37.950;145.008;2023-09-19T04:07:05;100101.52;;;28.33;22.85
54870;BME280;40756;-37.950;145.008;2023-09-19T04:09:35;100095.66;;;27.29;23.15
54870;BME280;40756;-37.950;145.008;2023-09-19T04:12:05;100086.83;;;27.04;24.12
54870;BME280;40756;-37.950;145.008;2023-09-19T04:14:34;100096.62;;;26.91;24.33
54870;BME280;40756;-37.950;145.008;2023-09-19T04:17:04;100089.50;;;26.60;24.43
54870;BME280;40756;-37.950;145.008;2023-09-19T04:19:33;100094.21;;;26.76;24.25
54870;BME280;40756;-37.950;145.008;2023-09-19T04:22:03;100098.07;;;26.52;25.35
54870;BME280;40756;-37.950;145.008;2023-09-19T04:24:33;100090.69;;;26.55;24.34
54870;BME280;40756;-37.950;145.008;2023-09-19T04:27:02;100083.32;;;26.87;24.64
54870;BME280;40756;-37.950;145.008;2023-09-19T04:29:31;100088.12;;;26.24;24.51
54870;BME280;40756;-37.950;145.008;2023-09-19T04:32:01;100084.62;;;26.84;24.37
54870;BME280;40756;-37.950;145.008;2023-09-19T04:34:30;100080.39;;;25.81;24.51
54870;BME280;40756;-37.950;145.008;2023-09-19T04:36:59;100084.88;;;26.30;24.44
54870;BME280;40756;-37.950;145.008;2023-09-19T04:39:29;100082.27;;;26.33;24.35
54870;BME280;40756;-37.950;145.008;2023-09-19T04:41:58;100084.41;;;26.46;24.57
54870;BME280;40756;-37.950;145.008;2023-09-19T04:44:27;100078.14;;;26.38;24.09
54870;BME280;40756;-37.950;145.008;2023-09-19T04:46:57;100074.32;;;26.55;23.95
54870;BME280;40756;-37.950;145.008;2023-09-19T04:49:26;100075.88;;;26.54;23.82
54870;BME280;40756;-37.950;145.008;2023-09-19T04:51:56;100071.13;;;26.15;23.86
54870;BME280;40756;-37.950;145.008;2023-09-19T04:54:26;100073.69;;;26.28;23.47
54870;BME280;40756;-37.950;145.008;2023-09-19T04:56:55;100073.71;;;26.76;23.53
54870;BME280;40756;-37.950;145.008;2023-09-19T04:59:25;100077.12;;;26.55;23.50
54870;BME280;40756;-37.950;145.008;2023-09-19T05:01:55;100074.22;;;26.84;23.23
54870;BME280;40756;-37.950;145.008;2023-09-19T05:04:24;100066.88;;;28.39;22.21
54870;BME280;40756;-37.950;145.008;2023-09-19T05:06:53;100067.46;;;28.31;21.49
54870;BME280;40756;-37.950;145.008;2023-09-19T05:09:23;100063.02;;;28.75;20.50
54870;BME280;40756;-37.950;145.008;2023-09-19T05:11:52;100059.80;;;29.87;20.13
54870;BME280;40756;-37.950;145.008;2023-09-19T05:14:21;100064.41;;;29.15;20.32
54870;BME280;40756;-37.950;145.008;2023-09-19T05:16:51;100062.83;;;30.04;19.91
54870;BME280;40756;-37.950;145.008;2023-09-19T05:19:20;100068.24;;;29.57;20.02
54870;BME280;40756;-37.950;145.008;2023-09-19T05:21:50;100070.54;;;30.28;19.89
54870;BME280;40756;-37.950;145.008;2023-09-19T05:24:20;100072.58;;;29.87;19.89
54870;BME280;40756;-37.950;145.008;2023-09-19T05:26:49;100067.89;;;30.70;19.55
54870;BME280;40756;-37.950;145.008;2023-09-19T05:29:19;100067.30;;;31.09;19.11
54870;BME280;40756;-37.950;145.008;2023-09-19T05:31:48;100058.46;;;29.94;19.10
54870;BME280;40756;-37.950;145.008;2023-09-19T05:34:17;100060.31;;;30.24;19.26
54870;BME280;40756;-37.950;145.008;2023-09-19T05:36:46;100055.65;;;30.02;19.36
54870;BME280;40756;-37.950;145.008;2023-09-19T05:39:16;100057.90;;;30.51;19.02
54870;BME280;40756;-37.950;145.008;2023-09-19T05:41:45;100062.36;;;30.61;19.02
54870;BME280;40756;-37.950;145.008;2023-09-19T05:44:15;100067.04;;;29.72;19.38
54870;BME280;40756;-37.950;145.008;2023-09-19T05:46:44;100066.19;;;30.06;19.00
54870;BME280;40756;-37.950;145.008;2023-09-19T05:49:14;100068.97;;;30.07;19.39
54870;BME280;40756;-37.950;145.008;2023-09-19T05:51:43;100069.53;;;29.94;19.36
54870;BME280;40756;-37.950;145.008;2023-09-19T05:54:13;100070.95;;;29.94;19.50
54870;BME280;40756;-37.950;145.008;2023-09-19T05:56:43;100070.16;;;30.08;19.41
54870;BME280;40756;-37.950;145.008;2023-09-19T05:59:12;100089.49;;;28.98;22.12
54870;BME280;40756;-37.950;145.008;2023-09-19T06:01:41;100087.39;;;28.44;22.64
54870;BME280;40756;-37.950;145.008;2023-09-19T06:04:10;100086.94;;;29.06;21.75
54870;BME280;40756;-37.950;145.008;2023-09-19T06:06:40;100083.39;;;28.96;21.60
54870;BME280;40756;-37.950;145.008;2023-09-19T06:09:09;100077.82;;;29.59;21.60
54870;BME280;40756;-37.950;145.008;2023-09-19T06:11:38;100075.79;;;29.11;21.59
54870;BME280;40756;-37.950;145.008;2023-09-19T06:14:08;100073.26;;;29.19;22.11
54870;BME280;40756;-37.950;145.008;2023-09-19T06:16:37;100080.12;;;28.59;22.33
54870;BME280;40756;-37.950;145.008;2023-09-19T06:19:06;100071.95;;;28.09;22.05
54870;BME280;40756;-37.950;145.008;2023-09-19T06:21:36;100074.39;;;28.17;21.94
54870;BME280;40756;-37.950;145.008;2023-09-19T06:24:06;100073.29;;;28.16;23.38
54870;BME280;40756;-37.950;145.008;2023-09-19T06:26:36;100074.38;;;28.28;22.97
54870;BME280;40756;-37.950;145.008;2023-09-19T06:29:06;100079.14;;;28.24;22.42
54870;BME280;40756;-37.950;145.008;2023-09-19T06:31:35;100080.88;;;27.75;22.05
54870;BME280;40756;-37.950;145.008;2023-09-19T06:34:05;100085.08;;;26.97;23.58
54870;BME280;40756;-37.950;145.008;2023-09-19T06:36:34;100091.48;;;27.17;23.26
54870;BME280;40756;-37.950;145.008;2023-09-19T06:39:03;100080.45;;;27.47;23.03
54870;BME280;40756;-37.950;145.008;2023-09-19T06:41:33;100087.93;;;27.45;23.23
54870;BME280;40756;-37.950;145.008;2023-09-19T06:44:02;100083.99;;;27.64;23.20
54870;BME280;40756;-37.950;145.008;2023-09-19T06:46:31;100091.11;;;27.15;23.31
54870;BME280;40756;-37.950;145.008;2023-09-19T06:49:00;100086.08;;;27.47;23.57
54870;BME280;40756;-37.950;145.008;2023-09-19T06:51:30;100089.91;;;26.97;24.16
54870;BME280;40756;-37.950;145.008;2023-09-19T06:53:59;100080.40;;;26.19;24.52
54870;BME280;40756;-37.950;145.008;2023-09-19T06:56:29;100086.75;;;26.50;24.46
54870;BME280;40756;-37.950;145.008;2023-09-19T06:58:59;100077.81;;;26.18;24.49
54870;BME280;40756;-37.950;145.008;2023-09-19T07:01:28;100090.49;;;26.27;24.78
54870;BME280;40756;-37.950;145.008;2023-09-19T07:03:57;100090.48;;;25.75;25.07
54870;BME280;40756;-37.950;145.008;2023-09-19T07:06:26;100088.46;;;26.12;24.79
54870;BME280;40756;-37.950;145.008;2023-09-19T07:08:56;100082.82;;;25.81;25.15
54870;BME280;40756;-37.950;145.008;2023-09-19T07:11:25;100086.85;;;26.24;24.51
54870;BME280;40756;-37.950;145.008;2023-09-19T07:13:55;100093.33;;;25.88;25.27
54870;BME280;40756;-37.950;145.008;2023-09-19T07:16:24;100081.74;;;26.06;26.50
54870;BME280;40756;-37.950;145.008;2023-09-19T07:18:53;100083.56;;;26.22;24.88
54870;BME280;40756;-37.950;145.008;2023-09-19T07:21:23;100089.72;;;25.27;26.45
54870;BME280;40756;-37.950;145.008;2023-09-19T07:23:52;100077.22;;;25.16;26.41
54870;BME280;40756;-37.950;145.008;2023-09-19T07:26:22;100076.72;;;25.25;26.94
54870;BME280;40756;-37.950;145.008;2023-09-19T07:28:52;100081.72;;;25.09;27.11
54870;BME280;40756;-37.950;145.008;2023-09-19T07:31:21;100086.75;;;24.75;27.87
54870;BME280;40756;-37.950;145.008;2023-09-19T07:33:50;100083.27;;;24.48;28.18
54870;BME280;40756;-37.950;145.008;2023-09-19T07:36:19;100080.94;;;24.02;27.89
54870;BME280;40756;-37.950;145.008;2023-09-19T07:38:49;100090.07;;;24.25;27.96
54870;BME280;40756;-37.950;145.008;2023-09-19T07:41:18;100092.82;;;24.81;28.17
54870;BME280;40756;-37.950;145.008;2023-09-19T07:43:47;100091.94;;;24.03;28.32
54870;BME280;40756;-37.950;145.008;2023-09-19T07:46:17;100093.94;;;23.74;28.67
54870;BME280;40756;-37.950;145.008;2023-09-19T07:48:47;100091.55;;;24.46;28.43
54870;BME280;40756;-37.950;145.008;2023-09-19T07:51:17;100092.25;;;24.06;27.63
54870;BME280;40756;-37.950;145.008;2023-09-19T07:53:46;100092.71;;;24.06;27.88
54870;BME280;40756;-37.950;145.008;2023-09-19T07:56:15;100089.32;;;23.91;28.31
54870;BME280;40756;-37.950;145.008;2023-09-19T07:58:46;100087.08;;;24.26;27.75
54870;BME280;40756;-37.950;145.008;2023-09-19T08:01:15;100082.61;;;24.21;28.00
54870;BME280;40756;-37.950;145.008;2023-09-19T08:03:44;100086.03;;;24.53;27.93
54870;BME280;40756;-37.950;145.008;2023-09-19T08:06:14;100084.41;;;24.18;28.33
54870;BME280;40756;-37.950;145.008;2023-09-19T08:08:43;100079.11;;;24.21;28.61
54870;BME280;40756;-37.950;145.008;2023-09-19T08:11:13;100077.90;;;23.61;28.55
54870;BME280;40756;-37.950;145.008;2023-09-19T08:13:43;100085.34;;;24.05;28.37
54870;BME280;40756;-37.950;145.008;2023-09-19T08:16:12;100090.79;;;23.98;27.78
54870;BME280;40756;-37.950;145.008;2023-09-19T08:18:42;100078.91;;;23.75;28.34
54870;BME280;40756;-37.950;145.008;2023-09-19T08:21:13;100093.44;;;23.71;28.21
54870;BME280;40756;-37.950;145.008;2023-09-19T08:23:42;100081.18;;;23.81;28.03
54870;BME280;40756;-37.950;145.008;2023-09-19T08:26:11;100090.50;;;24.09;27.93
54870;BME280;40756;-37.950;145.008;2023-09-19T08:28:42;100088.71;;;23.45;28.17
54870;BME280;40756;-37.950;145.008;2023-09-19T08:31:12;100091.68;;;23.82;28.10
54870;BME280;40756;-37.950;145.008;2023-09-19T08:33:41;100093.28;;;23.46;28.63
54870;BME280;40756;-37.950;145.008;2023-09-19T08:36:16;100105.31;;;23.67;28.56
54870;BME280;40756;-37.950;145.008;2023-09-19T08:38:45;100101.65;;;23.33;28.76
54870;BME280;40756;-37.950;145.008;2023-09-19T08:41:15;100102.75;;;23.99;28.32
54870;BME280;40756;-37.950;145.008;2023-09-19T08:43:46;100107.77;;;23.42;28.86
54870;BME280;40756;-37.950;145.008;2023-09-19T08:46:17;100110.28;;;23.32;28.73
54870;BME280;40756;-37.950;145.008;2023-09-19T08:48:54;100106.63;;;23.66;28.24
54870;BME280;40756;-37.950;145.008;2023-09-19T08:51:30;100112.64;;;23.34;28.53
54870;BME280;40756;-37.950;145.008;2023-09-19T08:54:07;100109.55;;;23.63;28.33
54870;BME280;40756;-37.950;145.008;2023-09-19T08:56:38;100113.01;;;23.39;28.82
54870;BME280;40756;-37.950;145.008;2023-09-19T08:59:08;100118.47;;;23.60;28.57
54870;BME280;40756;-37.950;145.008;2023-09-19T09:01:39;100122.31;;;23.26;29.08
54870;BME280;40756;-37.950;145.008;2023-09-19T09:04:10;100121.65;;;23.29;29.38
54870;BME280;40756;-37.950;145.008;2023-09-19T09:06:40;100122.33;;;22.82;29.48
54870;BME280;40756;-37.950;145.008;2023-09-19T09:09:10;100120.66;;;22.67;29.85
54870;BME280;40756;-37.950;145.008;2023-09-19T09:11:40;100122.12;;;22.89;29.90
54870;BME280;40756;-37.950;145.008;2023-09-19T09:14:09;100129.74;;;22.58;29.87
54870;BME280;40756;-37.950;145.008;2023-09-19T09:16:40;100131.60;;;22.25;30.41
54870;BME280;40756;-37.950;145.008;2023-09-19T09:19:09;100132.49;;;22.42;30.24
54870;BME280;40756;-37.950;145.008;2023-09-19T09:21:38;100131.64;;;21.98;30.18
54870;BME280;40756;-37.950;145.008;2023-09-19T09:24:53;100136.60;;;22.21;30.20
54870;BME280;40756;-37.950;145.008;2023-09-19T09:27:23;100143.63;;;22.06;30.16
54870;BME280;40756;-37.950;145.008;2023-09-19T09:29:53;100152.96;;;22.42;30.04
54870;BME280;40756;-37.950;145.008;2023-09-19T09:32:24;100145.45;;;22.00;29.79
54870;BME280;40756;-37.950;145.008;2023-09-19T09:34:55;100150.33;;;22.29;29.51
54870;BME280;40756;-37.950;145.008;2023-09-19T09:37:27;100143.36;;;22.19;29.39
54870;BME280;40756;-37.950;145.008;2023-09-19T09:39:58;100153.16;;;22.14;29.39
54870;BME280;40756;-37.950;145.008;2023-09-19T09:42:33;100159.00;;;22.14;29.29
54870;BME280;40756;-37.950;145.008;2023-09-19T09:45:16;100159.93;;;22.35;29.27
54870;BME280;40756;-37.950;145.008;2023-09-19T09:47:47;100163.36;;;21.71;29.78
54870;BME280;40756;-37.950;145.008;2023-09-19T09:50:25;100171.78;;;21.68;29.83
54870;BME280;40756;-37.950;145.008;2023-09-19T09:52:55;100168.48;;;22.04;29.96
54870;BME280;40756;-37.950;145.008;2023-09-19T09:55:25;100166.59;;;21.85;30.34
54870;BME280;40756;-37.950;145.008;2023-09-19T09:58:17;100169.63;;;22.22;29.76
54870;BME280;40756;-37.950;145.008;2023-09-19T10:00:56;100175.29;;;21.76;30.08
54870;BME280;40756;-37.950;145.008;2023-09-19T10:03:35;100175.35;;;21.99;30.18
54870;BME280;40756;-37.950;145.008;2023-09-19T10:06:05;100175.61;;;21.83;29.69
54870;BME280;40756;-37.950;145.008;2023-09-19T10:08:35;100171.58;;;22.02;29.74
54870;BME280;40756;-37.950;145.008;2023-09-19T10:11:17;100169.80;;;21.70;30.03
54870;BME280;40756;-37.950;145.008;2023-09-19T10:13:47;100169.83;;;20.99;30.62
54870;BME280;40756;-37.950;145.008;2023-09-19T10:16:18;100169.03;;;21.97;30.31
54870;BME280;40756;-37.950;145.008;2023-09-19T10:18:49;100174.06;;;21.83;30.70
54870;BME280;40756;-37.950;145.008;2023-09-19T10:21:20;100171.53;;;21.70;30.18
54870;BME280;40756;-37.950;145.008;2023-09-19T10:23:51;100168.35;;;21.60;30.14
54870;BME280;40756;-37.950;145.008;2023-09-19T10:26:22;100168.04;;;21.85;29.65
54870;BME280;40756;-37.950;145.008;2023-09-19T10:28:53;100168.42;;;21.73;29.31
54870;BME280;40756;-37.950;145.008;2023-09-19T10:31:23;100165.49;;;21.84;29.29
54870;BME280;40756;-37.950;145.008;2023-09-19T10:33:55;100172.26;;;21.48;29.27
54870;BME280;40756;-37.950;145.008;2023-09-19T10:36:25;100160.06;;;21.49;29.89
54870;BME280;40756;-37.950;145.008;2023-09-19T10:38:56;100165.31;;;21.76;29.29
54870;BME280;40756;-37.950;145.008;2023-09-19T10:41:30;100164.77;;;21.52;29.66
54870;BME280;40756;-37.950;145.008;2023-09-19T10:44:03;100167.47;;;21.17;29.59
54870;BME280;40756;-37.950;145.008;2023-09-19T10:46:33;100161.64;;;21.54;28.80
54870;BME280;40756;-37.950;145.008;2023-09-19T10:49:03;100163.75;;;21.08;28.79
54870;BME280;40756;-37.950;145.008;2023-09-19T10:51:43;100166.76;;;21.21;28.36
54870;BME280;40756;-37.950;145.008;2023-09-19T10:54:17;100169.05;;;21.41;28.30
54870;BME280;40756;-37.950;145.008;2023-09-19T10:56:50;100167.45;;;21.34;27.96
54870;BME280;40756;-37.950;145.008;2023-09-19T10:59:20;100168.06;;;21.29;27.70
54870;BME280;40756;-37.950;145.008;2023-09-19T11:01:52;100164.41;;;21.34;27.15
54870;BME280;40756;-37.950;145.008;2023-09-19T11:04:25;100168.37;;;21.32;27.15
54870;BME280;40756;-37.950;145.008;2023-09-19T11:07:03;100170.81;;;21.01;27.37
54870;BME280;40756;-37.950;145.008;2023-09-19T11:09:50;100172.26;;;21.47;26.93
54870;BME280;40756;-37.950;145.008;2023-09-19T11:12:53;100172.54;;;21.16;26.70
54870;BME280;40756;-37.950;145.008;2023-09-19T11:16:28;100172.95;;;21.48;25.90
54870;BME280;40756;-37.950;145.008;2023-09-19T11:18:58;100171.90;;;21.21;25.63
54870;BME280;40756;-37.950;145.008;2023-09-19T11:21:53;100165.57;;;20.80;25.62
54870;BME280;40756;-37.950;145.008;2023-09-19T11:24:31;100170.71;;;20.81;26.33
54870;BME280;40756;-37.950;145.008;2023-09-19T11:27:17;100164.43;;;21.01;26.51
54870;BME280;40756;-37.950;145.008;2023-09-19T11:29:46;100153.57;;;21.40;25.79
54870;BME280;40756;-37.950;145.008;2023-09-19T11:32:15;100148.64;;;21.09;27.42
54870;BME280;40756;-37.950;145.008;2023-09-19T11:34:47;100136.39;;;21.30;26.60
54870;BME280;40756;-37.950;145.008;2023-09-19T11:38:05;100128.14;;;21.24;26.12
54870;BME280;40756;-37.950;145.008;2023-09-19T11:40:34;100138.64;;;21.49;26.75
54870;BME280;40756;-37.950;145.008;2023-09-19T11:43:30;100147.24;;;21.69;25.77
54870;BME280;40756;-37.950;145.008;2023-09-19T11:46:07;100148.05;;;21.15;25.69
54870;BME280;40756;-37.950;145.008;2023-09-19T11:48:39;100154.15;;;20.69;25.79
54870;BME280;40756;-37.950;145.008;2023-09-19T11:51:18;100148.94;;;21.07;26.00
54870;BME280;40756;-37.950;145.008;2023-09-19T11:53:49;100143.77;;;20.47;26.47
54870;BME280;40756;-37.950;145.008;2023-09-19T11:56:20;100142.10;;;20.99;26.66
54870;BME280;40756;-37.950;145.008;2023-09-19T11:58:52;100142.85;;;20.51;26.89
54870;BME280;40756;-37.950;145.008;2023-09-19T12:01:24;100143.48;;;20.79;26.81
54870;BME280;40756;-37.950;145.008;2023-09-19T12:03:57;100142.36;;;20.41;27.05
54870;BME280;40756;-37.950;145.008;2023-09-19T12:06:27;100146.88;;;20.28;27.60
54870;BME280;40756;-37.950;145.008;2023-09-19T12:08:57;100144.98;;;20.65;27.01
54870;BME280;40756;-37.950;145.008;2023-09-19T12:11:29;100140.19;;;20.59;26.82
54870;BME280;40756;-37.950;145.008;2023-09-19T12:14:00;100142.81;;;20.09;27.37
54870;BME280;40756;-37.950;145.008;2023-09-19T12:16:29;100149.29;;;20.83;27.39
54870;BME280;40756;-37.950;145.008;2023-09-19T12:19:19;100141.06;;;21.07;27.50
54870;BME280;40756;-37.950;145.008;2023-09-19T12:21:55;100136.06;;;20.58;27.84
54870;BME280;40756;-37.950;145.008;2023-09-19T12:24:26;100140.05;;;20.40;27.93
54870;BME280;40756;-37.950;145.008;2023-09-19T12:27:00;100140.58;;;20.23;28.34
54870;BME280;40756;-37.950;145.008;2023-09-19T12:29:31;100137.02;;;20.93;28.08
54870;BME280;40756;-37.950;145.008;2023-09-19T12:32:00;100138.41;;;20.30;28.30
54870;BME280;40756;-37.950;145.008;2023-09-19T12:34:31;100133.62;;;20.33;28.20
54870;BME280;40756;-37.950;145.008;2023-09-19T12:37:10;100131.04;;;20.56;28.07
54870;BME280;40756;-37.950;145.008;2023-09-19T12:39:42;100129.89;;;20.12;28.37
54870;BME280;40756;-37.950;145.008;2023-09-19T12:42:13;100122.74;;;20.05;28.41
54870;BME280;40756;-37.950;145.008;2023-09-19T12:44:44;100123.70;;;20.33;28.49